sensor_id;sensor_type;location;lat;lon;timestamp;P1;durP1;ratioP1;P2;durP2;ratioP2
69847;SDS011;57143;55.940;37.496;2023-07-31T00:00:41;11.00;;;3.33;;
69847;SDS011;57143;55.940;37.496;2023-07-31T00:03:08;9.27;;;3.90;;
69847;SDS011;57143;55.940;37.496;2023-07-31T00:05:35;9.63;;;4.03;;
69847;SDS011;57143;55.940;37.496;2023-07-31T00:08:03;8.30;;;3.65;;
69847;SDS011;57143;55.940;37.496;2023-07-31T00:10:31;8.63;;;4.38;;
69847;SDS011;57143;55.940;37.496;2023-07-31T00:12:59;11.63;;;5.03;;
69847;SDS011;57143;55.940;37.496;2023-07-31T00:15:26;10.10;;;4.53;;
69847;SDS011;57143;55.940;37.496;2023-07-31T00:17:54;9.05;;;4.75;;
69847;SDS011;57143;55.940;37.496;2023-07-31T00:20:21;9.40;;;4.50;;
69847;SDS011;57143;55.940;37.496;2023-07-31T00:22:48;10.23;;;4.80;;
69847;SDS011;57143;55.940;37.496;2023-07-31T00:25:15;8.73;;;4.00;;
69847;SDS011;57143;55.940;37.496;2023-07-31T00:27:44;8.65;;;4.03;;
69847;SDS011;57143;55.940;37.496;2023-07-31T00:30:11;8.77;;;4.00;;
69847;SDS011;57143;55.940;37.496;2023-07-31T00:32:39;9.73;;;4.05;;
69847;SDS011;57143;55.940;37.496;2023-07-31T00:35:06;8.13;;;4.18;;
69847;SDS011;57143;55.940;37.496;2023-07-31T00:37:33;10.73;;;4.03;;
69847;SDS011;57143;55.940;37.496;2023-07-31T00:40:00;10.63;;;3.97;;
69847;SDS011;57143;55.940;37.496;2023-07-31T00:42:29;8.85;;;4.43;;
69847;SDS011;57143;55.940;37.496;2023-07-31T00:44:57;9.65;;;4.05;;
69847;SDS011;57143;55.940;37.496;2023-07-31T00:47:25;11.68;;;4.03;;
69847;SDS011;57143;55.940;37.496;2023-07-31T00:49:52;8.70;;;4.00;;
69847;SDS011;57143;55.940;37.496;2023-07-31T00:52:19;7.97;;;3.67;;
69847;SDS011;57143;55.940;37.496;2023-07-31T00:54:49;9.63;;;3.47;;
69847;SDS011;57143;55.940;37.496;2023-07-31T00:57:17;7.97;;;3.33;;
69847;SDS011;57143;55.940;37.496;2023-07-31T00:59:44;8.98;;;3.63;;
69847;SDS011;57143;55.940;37.496;2023-07-31T01:02:13;8.33;;;3.63;;
69847;SDS011;57143;55.940;37.496;2023-07-31T01:04:42;8.45;;;4.03;;
69847;SDS011;57143;55.940;37.496;2023-07-31T01:07:11;9.57;;;3.70;;
69847;SDS011;57143;55.940;37.496;2023-07-31T01:09:47;7.95;;;3.63;;
69847;SDS011;57143;55.940;37.496;2023-07-31T01:12:25;8.82;;;3.85;;
69847;SDS011;57143;55.940;37.496;2023-07-31T01:15:02;11.03;;;3.93;;
69847;SDS011;57143;55.940;37.496;2023-07-31T01:17:34;7.13;;;3.35;;
69847;SDS011;57143;55.940;37.496;2023-07-31T01:20:02;8.20;;;3.95;;
69847;SDS011;57143;55.940;37.496;2023-07-31T01:22:37;7.78;;;3.70;;
69847;SDS011;57143;55.940;37.496;2023-07-31T01:25:16;9.20;;;3.90;;
69847;SDS011;57143;55.940;37.496;2023-07-31T01:28:03;9.43;;;3.80;;
69847;SDS011;57143;55.940;37.496;2023-07-31T01:30:34;9.25;;;3.80;;
69847;SDS011;57143;55.940;37.496;2023-07-31T01:33:06;11.77;;;4.97;;
69847;SDS011;57143;55.940;37.496;2023-07-31T01:35:34;14.00;;;4.72;;
69847;SDS011;57143;55.940;37.496;2023-07-31T01:38:03;10.27;;;4.85;;
69847;SDS011;57143;55.940;37.496;2023-07-31T01:40:31;9.67;;;4.30;;
69847;SDS011;57143;55.940;37.496;2023-07-31T01:42:58;9.45;;;4.50;;
69847;SDS011;57143;55.940;37.496;2023-07-31T01:45:27;10.43;;;4.57;;
69847;SDS011;57143;55.940;37.496;2023-07-31T01:47:54;10.98;;;4.97;;
69847;SDS011;57143;55.940;37.496;2023-07-31T01:50:21;10.43;;;5.10;;
69847;SDS011;57143;55.940;37.496;2023-07-31T01:52:49;8.60;;;4.40;;
69847;SDS011;57143;55.940;37.496;2023-07-31T01:55:16;10.52;;;3.97;;
69847;SDS011;57143;55.940;37.496;2023-07-31T01:57:43;9.65;;;4.25;;
69847;SDS011;57143;55.940;37.496;2023-07-31T02:00:10;9.70;;;4.13;;
69847;SDS011;57143;55.940;37.496;2023-07-31T02:02:40;9.45;;;3.63;;
69847;SDS011;57143;55.940;37.496;2023-07-31T02:05:07;10.93;;;3.83;;
69847;SDS011;57143;55.940;37.496;2023-07-31T02:07:35;10.50;;;4.00;;
69847;SDS011;57143;55.940;37.496;2023-07-31T02:10:02;9.00;;;3.53;;
69847;SDS011;57143;55.940;37.496;2023-07-31T02:12:33;9.30;;;3.35;;
69847;SDS011;57143;55.940;37.496;2023-07-31T02:15:01;9.38;;;3.33;;
69847;SDS011;57143;55.940;37.496;2023-07-31T02:17:33;7.40;;;3.30;;
69847;SDS011;57143;55.940;37.496;2023-07-31T02:20:02;9.00;;;3.08;;
69847;SDS011;57143;55.940;37.496;2023-07-31T02:22:32;10.60;;;3.72;;
69847;SDS011;57143;55.940;37.496;2023-07-31T02:25:00;11.15;;;3.60;;
69847;SDS011;57143;55.940;37.496;2023-07-31T02:27:30;9.68;;;3.55;;
69847;SDS011;57143;55.940;37.496;2023-07-31T02:29:57;7.07;;;3.20;;
69847;SDS011;57143;55.940;37.496;2023-07-31T02:32:25;9.90;;;3.03;;
69847;SDS011;57143;55.940;37.496;2023-07-31T02:34:52;8.13;;;3.60;;
69847;SDS011;57143;55.940;37.496;2023-07-31T02:37:21;7.90;;;3.13;;
69847;SDS011;57143;55.940;37.496;2023-07-31T02:39:48;8.75;;;3.28;;
69847;SDS011;57143;55.940;37.496;2023-07-31T02:42:16;9.10;;;3.30;;
69847;SDS011;57143;55.940;37.496;2023-07-31T02:44:43;6.00;;;2.80;;
69847;SDS011;57143;55.940;37.496;2023-07-31T02:47:10;8.50;;;3.50;;
69847;SDS011;57143;55.940;37.496;2023-07-31T02:49:37;6.97;;;2.88;;
69847;SDS011;57143;55.940;37.496;2023-07-31T02:52:04;7.53;;;3.15;;
69847;SDS011;57143;55.940;37.496;2023-07-31T02:54:34;6.80;;;3.23;;
69847;SDS011;57143;55.940;37.496;2023-07-31T02:57:01;7.65;;;3.15;;
69847;SDS011;57143;55.940;37.496;2023-07-31T02:59:28;7.93;;;3.55;;
69847;SDS011;57143;55.940;37.496;2023-07-31T03:01:55;7.95;;;3.30;;
69847;SDS011;57143;55.940;37.496;2023-07-31T03:04:23;7.55;;;3.50;;
69847;SDS011;57143;55.940;37.496;2023-07-31T03:06:50;8.97;;;3.30;;
69847;SDS011;57143;55.940;37.496;2023-07-31T03:09:17;6.18;;;3.10;;
69847;SDS011;57143;55.940;37.496;2023-07-31T03:11:46;7.50;;;3.15;;
69847;SDS011;57143;55.940;37.496;2023-07-31T03:14:13;13.10;;;3.33;;
69847;SDS011;57143;55.940;37.496;2023-07-31T03:16:41;7.88;;;3.70;;
69847;SDS011;57143;55.940;37.496;2023-07-31T03:19:08;7.30;;;3.23;;
69847;SDS011;57143;55.940;37.496;2023-07-31T03:21:35;10.05;;;3.67;;
69847;SDS011;57143;55.940;37.496;2023-07-31T03:24:02;6.78;;;3.85;;
69847;SDS011;57143;55.940;37.496;2023-07-31T03:26:31;7.43;;;3.60;;
69847;SDS011;57143;55.940;37.496;2023-07-31T03:28:59;8.52;;;3.95;;
69847;SDS011;57143;55.940;37.496;2023-07-31T03:31:26;7.63;;;3.70;;
69847;SDS011;57143;55.940;37.496;2023-07-31T03:33:53;8.98;;;3.95;;
69847;SDS011;57143;55.940;37.496;2023-07-31T03:36:21;10.32;;;4.00;;
69847;SDS011;57143;55.940;37.496;2023-07-31T03:38:48;7.88;;;3.47;;
69847;SDS011;57143;55.940;37.496;2023-07-31T03:41:15;7.60;;;3.72;;
69847;SDS011;57143;55.940;37.496;2023-07-31T03:43:42;6.30;;;3.80;;
69847;SDS011;57143;55.940;37.496;2023-07-31T03:46:11;9.35;;;3.90;;
69847;SDS011;57143;55.940;37.496;2023-07-31T03:48:38;6.55;;;3.00;;
69847;SDS011;57143;55.940;37.496;2023-07-31T03:51:05;7.10;;;3.63;;
69847;SDS011;57143;55.940;37.496;2023-07-31T03:53:32;8.57;;;3.90;;
69847;SDS011;57143;55.940;37.496;2023-07-31T03:55:59;7.43;;;3.30;;
69847;SDS011;57143;55.940;37.496;2023-07-31T03:58:26;8.20;;;3.50;;
69847;SDS011;57143;55.940;37.496;2023-07-31T04:00:54;7.68;;;4.13;;
69847;SDS011;57143;55.940;37.496;2023-07-31T04:03:22;7.07;;;3.10;;
69847;SDS011;57143;55.940;37.496;2023-07-31T04:05:49;17.88;;;4.78;;
69847;SDS011;57143;55.940;37.496;2023-07-31T04:08:17;7.60;;;3.00;;
69847;SDS011;57143;55.940;37.496;2023-07-31T04:10:44;7.78;;;3.10;;
69847;SDS011;57143;55.940;37.496;2023-07-31T04:13:12;7.60;;;3.30;;
69847;SDS011;57143;55.940;37.496;2023-07-31T04:15:39;7.03;;;2.80;;
69847;SDS011;57143;55.940;37.496;2023-07-31T04:18:07;6.25;;;3.05;;
69847;SDS011;57143;55.940;37.496;2023-07-31T04:20:35;8.17;;;3.10;;
69847;SDS011;57143;55.940;37.496;2023-07-31T04:23:03;10.77;;;3.10;;
69847;SDS011;57143;55.940;37.496;2023-07-31T04:25:30;7.00;;;3.08;;
69847;SDS011;57143;55.940;37.496;2023-07-31T04:27:57;6.50;;;3.15;;
69847;SDS011;57143;55.940;37.496;2023-07-31T04:30:24;6.50;;;2.80;;
69847;SDS011;57143;55.940;37.496;2023-07-31T04:32:51;6.30;;;2.77;;
69847;SDS011;57143;55.940;37.496;2023-07-31T04:35:19;7.30;;;3.25;;
69847;SDS011;57143;55.940;37.496;2023-07-31T04:37:47;5.90;;;3.17;;
69847;SDS011;57143;55.940;37.496;2023-07-31T04:40:15;7.35;;;3.35;;
69847;SDS011;57143;55.940;37.496;2023-07-31T04:42:42;7.35;;;3.10;;
69847;SDS011;57143;55.940;37.496;2023-07-31T04:45:09;8.53;;;3.20;;
69847;SDS011;57143;55.940;37.496;2023-07-31T04:47:37;6.22;;;2.83;;
69847;SDS011;57143;55.940;37.496;2023-07-31T04:50:04;6.10;;;3.10;;
69847;SDS011;57143;55.940;37.496;2023-07-31T04:52:32;6.00;;;2.85;;
69847;SDS011;57143;55.940;37.496;2023-07-31T04:55:01;7.82;;;3.30;;
69847;SDS011;57143;55.940;37.496;2023-07-31T04:57:30;6.40;;;2.83;;
69847;SDS011;57143;55.940;37.496;2023-07-31T04:59:58;6.80;;;3.10;;
69847;SDS011;57143;55.940;37.496;2023-07-31T05:02:25;7.28;;;2.80;;
69847;SDS011;57143;55.940;37.496;2023-07-31T05:04:52;7.18;;;3.08;;
69847;SDS011;57143;55.940;37.496;2023-07-31T05:07:23;8.02;;;3.00;;
69847;SDS011;57143;55.940;37.496;2023-07-31T05:09:50;7.33;;;3.07;;
69847;SDS011;57143;55.940;37.496;2023-07-31T05:12:18;11.13;;;3.03;;
69847;SDS011;57143;55.940;37.496;2023-07-31T05:14:45;7.03;;;3.17;;
69847;SDS011;57143;55.940;37.496;2023-07-31T05:17:13;5.85;;;2.70;;
69847;SDS011;57143;55.940;37.496;2023-07-31T05:19:40;8.43;;;3.00;;
69847;SDS011;57143;55.940;37.496;2023-07-31T05:22:07;5.77;;;2.70;;
69847;SDS011;57143;55.940;37.496;2023-07-31T05:24:34;8.88;;;2.80;;
69847;SDS011;57143;55.940;37.496;2023-07-31T05:27:02;6.03;;;2.70;;
69847;SDS011;57143;55.940;37.496;2023-07-31T05:29:31;5.78;;;2.60;;
69847;SDS011;57143;55.940;37.496;2023-07-31T05:31:58;7.93;;;3.05;;
69847;SDS011;57143;55.940;37.496;2023-07-31T05:34:25;5.87;;;2.63;;
69847;SDS011;57143;55.940;37.496;2023-07-31T05:36:52;7.05;;;2.75;;
69847;SDS011;57143;55.940;37.496;2023-07-31T05:39:20;7.35;;;2.45;;
69847;SDS011;57143;55.940;37.496;2023-07-31T05:41:47;6.95;;;2.60;;
69847;SDS011;57143;55.940;37.496;2023-07-31T05:44:14;6.15;;;2.80;;
69847;SDS011;57143;55.940;37.496;2023-07-31T05:46:42;5.10;;;1.87;;
69847;SDS011;57143;55.940;37.496;2023-07-31T05:49:10;5.15;;;2.58;;
69847;SDS011;57143;55.940;37.496;2023-07-31T05:51:37;5.40;;;2.50;;
69847;SDS011;57143;55.940;37.496;2023-07-31T05:54:04;5.30;;;2.70;;
69847;SDS011;57143;55.940;37.496;2023-07-31T05:56:31;6.82;;;2.83;;
69847;SDS011;57143;55.940;37.496;2023-07-31T05:58:59;7.40;;;2.93;;
69847;SDS011;57143;55.940;37.496;2023-07-31T06:01:26;6.22;;;2.85;;
69847;SDS011;57143;55.940;37.496;2023-07-31T06:03:55;6.32;;;3.20;;
69847;SDS011;57143;55.940;37.496;2023-07-31T06:06:22;6.97;;;2.85;;
69847;SDS011;57143;55.940;37.496;2023-07-31T06:08:49;6.68;;;3.00;;
69847;SDS011;57143;55.940;37.496;2023-07-31T06:11:17;5.53;;;2.63;;
69847;SDS011;57143;55.940;37.496;2023-07-31T06:13:44;7.30;;;2.72;;
69847;SDS011;57143;55.940;37.496;2023-07-31T06:16:13;8.00;;;2.63;;
69847;SDS011;57143;55.940;37.496;2023-07-31T06:18:41;5.50;;;2.65;;
69847;SDS011;57143;55.940;37.496;2023-07-31T06:21:09;6.22;;;2.47;;
69847;SDS011;57143;55.940;37.496;2023-07-31T06:23:37;6.83;;;2.80;;
69847;SDS011;57143;55.940;37.496;2023-07-31T06:26:04;6.18;;;2.80;;
69847;SDS011;57143;55.940;37.496;2023-07-31T06:28:31;6.53;;;2.90;;
69847;SDS011;57143;55.940;37.496;2023-07-31T06:30:59;6.60;;;2.45;;
69847;SDS011;57143;55.940;37.496;2023-07-31T06:33:26;7.45;;;2.17;;
69847;SDS011;57143;55.940;37.496;2023-07-31T06:35:54;4.83;;;2.30;;
69847;SDS011;57143;55.940;37.496;2023-07-31T06:38:24;4.72;;;2.53;;
69847;SDS011;57143;55.940;37.496;2023-07-31T06:40:52;8.05;;;2.63;;
69847;SDS011;57143;55.940;37.496;2023-07-31T06:43:19;5.93;;;2.25;;
69847;SDS011;57143;55.940;37.496;2023-07-31T06:45:46;6.28;;;2.30;;
69847;SDS011;57143;55.940;37.496;2023-07-31T06:48:16;5.20;;;2.20;;
69847;SDS011;57143;55.940;37.496;2023-07-31T06:50:43;5.68;;;2.28;;
69847;SDS011;57143;55.940;37.496;2023-07-31T06:53:11;4.90;;;2.42;;
69847;SDS011;57143;55.940;37.496;2023-07-31T06:55:39;6.18;;;2.22;;
69847;SDS011;57143;55.940;37.496;2023-07-31T06:58:06;6.03;;;2.42;;
69847;SDS011;57143;55.940;37.496;2023-07-31T07:00:34;5.83;;;2.03;;
69847;SDS011;57143;55.940;37.496;2023-07-31T07:03:01;6.38;;;2.40;;
69847;SDS011;57143;55.940;37.496;2023-07-31T07:05:28;4.93;;;2.22;;
69847;SDS011;57143;55.940;37.496;2023-07-31T07:07:55;6.43;;;2.00;;
69847;SDS011;57143;55.940;37.496;2023-07-31T07:10:22;4.97;;;2.10;;
69847;SDS011;57143;55.940;37.496;2023-07-31T07:12:51;4.63;;;2.00;;
69847;SDS011;57143;55.940;37.496;2023-07-31T07:15:19;4.90;;;2.10;;
69847;SDS011;57143;55.940;37.496;2023-07-31T07:17:47;4.90;;;2.47;;
69847;SDS011;57143;55.940;37.496;2023-07-31T07:20:14;7.22;;;2.67;;
69847;SDS011;57143;55.940;37.496;2023-07-31T07:22:42;4.88;;;2.20;;
69847;SDS011;57143;55.940;37.496;2023-07-31T07:25:09;5.77;;;2.20;;
69847;SDS011;57143;55.940;37.496;2023-07-31T07:27:36;4.30;;;1.88;;
69847;SDS011;57143;55.940;37.496;2023-07-31T07:30:05;4.65;;;2.30;;
69847;SDS011;57143;55.940;37.496;2023-07-31T07:32:34;5.18;;;1.90;;
69847;SDS011;57143;55.940;37.496;2023-07-31T07:35:01;4.75;;;2.20;;
69847;SDS011;57143;55.940;37.496;2023-07-31T07:37:29;7.30;;;1.60;;
69847;SDS011;57143;55.940;37.496;2023-07-31T07:39:57;4.90;;;2.00;;
69847;SDS011;57143;55.940;37.496;2023-07-31T07:42:24;4.82;;;1.95;;
69847;SDS011;57143;55.940;37.496;2023-07-31T07:44:51;4.53;;;1.80;;
69847;SDS011;57143;55.940;37.496;2023-07-31T07:47:20;5.55;;;2.35;;
69847;SDS011;57143;55.940;37.496;2023-07-31T07:49:47;6.40;;;2.10;;
69847;SDS011;57143;55.940;37.496;2023-07-31T07:52:14;5.05;;;2.00;;
69847;SDS011;57143;55.940;37.496;2023-07-31T07:54:41;6.82;;;2.40;;
69847;SDS011;57143;55.940;37.496;2023-07-31T07:57:08;4.70;;;2.30;;
69847;SDS011;57143;55.940;37.496;2023-07-31T07:59:36;4.90;;;2.30;;
69847;SDS011;57143;55.940;37.496;2023-07-31T08:02:03;4.40;;;1.90;;
69847;SDS011;57143;55.940;37.496;2023-07-31T08:04:32;5.45;;;1.98;;
69847;SDS011;57143;55.940;37.496;2023-07-31T08:06:59;4.70;;;2.10;;
69847;SDS011;57143;55.940;37.496;2023-07-31T08:09:26;4.85;;;1.75;;
69847;SDS011;57143;55.940;37.496;2023-07-31T08:11:53;4.68;;;1.77;;
69847;SDS011;57143;55.940;37.496;2023-07-31T08:14:23;5.60;;;2.17;;
69847;SDS011;57143;55.940;37.496;2023-07-31T08:16:50;4.70;;;2.10;;
69847;SDS011;57143;55.940;37.496;2023-07-31T08:19:17;5.38;;;2.45;;
69847;SDS011;57143;55.940;37.496;2023-07-31T08:21:46;7.57;;;2.30;;
69847;SDS011;57143;55.940;37.496;2023-07-31T08:24:13;4.60;;;1.75;;
69847;SDS011;57143;55.940;37.496;2023-07-31T08:26:40;9.93;;;2.70;;
69847;SDS011;57143;55.940;37.496;2023-07-31T08:29:08;5.10;;;1.80;;
69847;SDS011;57143;55.940;37.496;2023-07-31T08:31:35;7.07;;;2.40;;
69847;SDS011;57143;55.940;37.496;2023-07-31T08:34:02;5.25;;;2.22;;
69847;SDS011;57143;55.940;37.496;2023-07-31T08:36:30;5.05;;;2.00;;
69847;SDS011;57143;55.940;37.496;2023-07-31T08:38:58;4.40;;;2.00;;
69847;SDS011;57143;55.940;37.496;2023-07-31T08:41:26;5.22;;;1.90;;
69847;SDS011;57143;55.940;37.496;2023-07-31T08:43:54;5.90;;;2.53;;
69847;SDS011;57143;55.940;37.496;2023-07-31T08:46:23;4.93;;;2.10;;
69847;SDS011;57143;55.940;37.496;2023-07-31T08:48:51;4.70;;;2.00;;
69847;SDS011;57143;55.940;37.496;2023-07-31T08:51:19;5.30;;;2.30;;
69847;SDS011;57143;55.940;37.496;2023-07-31T08:53:47;4.93;;;2.10;;
69847;SDS011;57143;55.940;37.496;2023-07-31T08:56:15;5.15;;;2.20;;
69847;SDS011;57143;55.940;37.496;2023-07-31T08:58:43;6.03;;;2.00;;
69847;SDS011;57143;55.940;37.496;2023-07-31T09:01:12;5.57;;;2.22;;
69847;SDS011;57143;55.940;37.496;2023-07-31T09:03:41;4.70;;;2.17;;
69847;SDS011;57143;55.940;37.496;2023-07-31T09:06:10;6.65;;;2.28;;
69847;SDS011;57143;55.940;37.496;2023-07-31T09:08:40;4.80;;;1.98;;
69847;SDS011;57143;55.940;37.496;2023-07-31T09:11:08;9.75;;;2.30;;
69847;SDS011;57143;55.940;37.496;2023-07-31T09:13:37;6.55;;;2.30;;
69847;SDS011;57143;55.940;37.496;2023-07-31T09:16:07;4.73;;;1.90;;
69847;SDS011;57143;55.940;37.496;2023-07-31T09:18:40;6.25;;;2.25;;
69847;SDS011;57143;55.940;37.496;2023-07-31T09:21:20;5.72;;;2.10;;
69847;SDS011;57143;55.940;37.496;2023-07-31T09:23:48;7.38;;;2.40;;
69847;SDS011;57143;55.940;37.496;2023-07-31T09:26:28;6.30;;;2.13;;
69847;SDS011;57143;55.940;37.496;2023-07-31T09:28:58;5.47;;;2.03;;
69847;SDS011;57143;55.940;37.496;2023-07-31T09:31:32;7.00;;;1.92;;
69847;SDS011;57143;55.940;37.496;2023-07-31T09:34:00;4.75;;;1.85;;
69847;SDS011;57143;55.940;37.496;2023-07-31T09:36:29;5.82;;;2.28;;
69847;SDS011;57143;55.940;37.496;2023-07-31T09:38:58;4.70;;;1.75;;
69847;SDS011;57143;55.940;37.496;2023-07-31T09:41:28;5.73;;;1.93;;
69847;SDS011;57143;55.940;37.496;2023-07-31T09:43:56;4.93;;;2.00;;
69847;SDS011;57143;55.940;37.496;2023-07-31T09:46:26;5.53;;;2.28;;
69847;SDS011;57143;55.940;37.496;2023-07-31T09:49:02;4.70;;;2.33;;
69847;SDS011;57143;55.940;37.496;2023-07-31T09:51:34;8.13;;;2.10;;
69847;SDS011;57143;55.940;37.496;2023-07-31T09:54:11;4.80;;;1.83;;
69847;SDS011;57143;55.940;37.496;2023-07-31T09:56:42;5.63;;;2.15;;
69847;SDS011;57143;55.940;37.496;2023-07-31T09:59:12;5.43;;;2.20;;
69847;SDS011;57143;55.940;37.496;2023-07-31T10:01:41;4.70;;;2.20;;
69847;SDS011;57143;55.940;37.496;2023-07-31T10:04:09;4.97;;;2.20;;
69847;SDS011;57143;55.940;37.496;2023-07-31T10:06:38;5.97;;;2.17;;
69847;SDS011;57143;55.940;37.496;2023-07-31T10:09:07;4.90;;;1.98;;
69847;SDS011;57143;55.940;37.496;2023-07-31T10:11:37;5.60;;;2.38;;
69847;SDS011;57143;55.940;37.496;2023-07-31T10:14:09;6.22;;;2.22;;
69847;SDS011;57143;55.940;37.496;2023-07-31T10:16:39;6.40;;;2.22;;
69847;SDS011;57143;55.940;37.496;2023-07-31T10:19:08;6.60;;;2.13;;
69847;SDS011;57143;55.940;37.496;2023-07-31T10:21:36;6.53;;;2.40;;
69847;SDS011;57143;55.940;37.496;2023-07-31T10:24:05;5.47;;;2.00;;
69847;SDS011;57143;55.940;37.496;2023-07-31T10:26:32;7.30;;;2.17;;
69847;SDS011;57143;55.940;37.496;2023-07-31T10:29:02;6.03;;;2.08;;
69847;SDS011;57143;55.940;37.496;2023-07-31T10:31:31;4.87;;;1.87;;
69847;SDS011;57143;55.940;37.496;2023-07-31T10:34:00;5.50;;;2.30;;
69847;SDS011;57143;55.940;37.496;2023-07-31T10:36:28;5.13;;;2.38;;
69847;SDS011;57143;55.940;37.496;2023-07-31T10:38:56;5.03;;;1.90;;
69847;SDS011;57143;55.940;37.496;2023-07-31T10:41:28;4.90;;;2.40;;
69847;SDS011;57143;55.940;37.496;2023-07-31T10:44:00;5.20;;;2.43;;
69847;SDS011;57143;55.940;37.496;2023-07-31T10:46:27;5.45;;;2.08;;
69847;SDS011;57143;55.940;37.496;2023-07-31T10:49:00;6.90;;;2.47;;
69847;SDS011;57143;55.940;37.496;2023-07-31T10:51:37;7.72;;;2.35;;
69847;SDS011;57143;55.940;37.496;2023-07-31T10:54:10;5.55;;;2.28;;
69847;SDS011;57143;55.940;37.496;2023-07-31T10:56:38;6.30;;;2.33;;
69847;SDS011;57143;55.940;37.496;2023-07-31T10:59:05;6.47;;;2.30;;
69847;SDS011;57143;55.940;37.496;2023-07-31T11:01:52;12.30;;;2.42;;
69847;SDS011;57143;55.940;37.496;2023-07-31T11:04:25;5.50;;;2.10;;
69847;SDS011;57143;55.940;37.496;2023-07-31T11:06:56;5.20;;;2.60;;
69847;SDS011;57143;55.940;37.496;2023-07-31T11:09:24;4.67;;;2.03;;
69847;SDS011;57143;55.940;37.496;2023-07-31T11:11:55;6.55;;;2.55;;
69847;SDS011;57143;55.940;37.496;2023-07-31T11:14:22;6.22;;;2.40;;
69847;SDS011;57143;55.940;37.496;2023-07-31T11:16:50;6.05;;;2.17;;
69847;SDS011;57143;55.940;37.496;2023-07-31T11:19:21;7.40;;;2.10;;
69847;SDS011;57143;55.940;37.496;2023-07-31T11:21:50;7.00;;;2.63;;
69847;SDS011;57143;55.940;37.496;2023-07-31T11:24:19;5.55;;;2.17;;
69847;SDS011;57143;55.940;37.496;2023-07-31T11:26:50;6.35;;;2.55;;
69847;SDS011;57143;55.940;37.496;2023-07-31T11:29:19;6.78;;;2.33;;
69847;SDS011;57143;55.940;37.496;2023-07-31T11:31:47;8.73;;;2.72;;
69847;SDS011;57143;55.940;37.496;2023-07-31T11:34:15;8.57;;;2.30;;
69847;SDS011;57143;55.940;37.496;2023-07-31T11:36:53;5.22;;;2.35;;
69847;SDS011;57143;55.940;37.496;2023-07-31T11:39:21;6.07;;;2.80;;
69847;SDS011;57143;55.940;37.496;2023-07-31T11:41:48;6.00;;;2.10;;
69847;SDS011;57143;55.940;37.496;2023-07-31T11:44:16;6.95;;;2.45;;
69847;SDS011;57143;55.940;37.496;2023-07-31T11:46:43;5.60;;;2.43;;
69847;SDS011;57143;55.940;37.496;2023-07-31T11:49:10;5.68;;;2.17;;
69847;SDS011;57143;55.940;37.496;2023-07-31T11:51:38;6.05;;;2.40;;
69847;SDS011;57143;55.940;37.496;2023-07-31T11:54:07;7.80;;;2.53;;
69847;SDS011;57143;55.940;37.496;2023-07-31T11:56:34;8.73;;;2.45;;
69847;SDS011;57143;55.940;37.496;2023-07-31T11:59:01;5.47;;;2.50;;
69847;SDS011;57143;55.940;37.496;2023-07-31T12:01:31;6.00;;;2.72;;
69847;SDS011;57143;55.940;37.496;2023-07-31T12:03:58;7.57;;;2.88;;
69847;SDS011;57143;55.940;37.496;2023-07-31T12:06:32;5.50;;;2.80;;
69847;SDS011;57143;55.940;37.496;2023-07-31T12:09:00;8.05;;;2.63;;
69847;SDS011;57143;55.940;37.496;2023-07-31T12:11:30;6.37;;;2.40;;
69847;SDS011;57143;55.940;37.496;2023-07-31T12:13:58;6.07;;;2.63;;
69847;SDS011;57143;55.940;37.496;2023-07-31T12:16:26;6.93;;;2.85;;
69847;SDS011;57143;55.940;37.496;2023-07-31T12:18:54;6.38;;;2.80;;
69847;SDS011;57143;55.940;37.496;2023-07-31T12:21:21;9.15;;;2.65;;
69847;SDS011;57143;55.940;37.496;2023-07-31T12:23:49;6.67;;;2.60;;
69847;SDS011;57143;55.940;37.496;2023-07-31T12:26:19;5.35;;;2.33;;
69847;SDS011;57143;55.940;37.496;2023-07-31T12:28:50;6.38;;;2.63;;
69847;SDS011;57143;55.940;37.496;2023-07-31T12:31:18;5.68;;;2.80;;
69847;SDS011;57143;55.940;37.496;2023-07-31T12:33:48;7.47;;;2.60;;
69847;SDS011;57143;55.940;37.496;2023-07-31T12:36:18;7.17;;;2.33;;
69847;SDS011;57143;55.940;37.496;2023-07-31T12:38:47;6.53;;;2.60;;
69847;SDS011;57143;55.940;37.496;2023-07-31T12:41:15;6.53;;;3.00;;
69847;SDS011;57143;55.940;37.496;2023-07-31T12:43:43;6.53;;;2.67;;
69847;SDS011;57143;55.940;37.496;2023-07-31T12:46:13;10.23;;;2.90;;
69847;SDS011;57143;55.940;37.496;2023-07-31T12:48:41;7.70;;;2.60;;
69847;SDS011;57143;55.940;37.496;2023-07-31T12:51:08;6.20;;;2.67;;
69847;SDS011;57143;55.940;37.496;2023-07-31T12:53:35;6.10;;;2.88;;
69847;SDS011;57143;55.940;37.496;2023-07-31T12:56:03;5.95;;;2.30;;
69847;SDS011;57143;55.940;37.496;2023-07-31T12:58:30;8.13;;;2.75;;
69847;SDS011;57143;55.940;37.496;2023-07-31T13:00:58;6.13;;;2.07;;
69847;SDS011;57143;55.940;37.496;2023-07-31T13:03:27;4.97;;;2.05;;
69847;SDS011;57143;55.940;37.496;2023-07-31T13:05:54;6.75;;;2.55;;
69847;SDS011;57143;55.940;37.496;2023-07-31T13:08:21;6.53;;;2.22;;
69847;SDS011;57143;55.940;37.496;2023-07-31T13:10:48;6.65;;;2.25;;
69847;SDS011;57143;55.940;37.496;2023-07-31T13:13:16;7.80;;;3.10;;
69847;SDS011;57143;55.940;37.496;2023-07-31T13:15:43;7.32;;;2.55;;
69847;SDS011;57143;55.940;37.496;2023-07-31T13:18:10;7.80;;;3.00;;
69847;SDS011;57143;55.940;37.496;2023-07-31T13:20:39;11.93;;;3.05;;
69847;SDS011;57143;55.940;37.496;2023-07-31T13:23:06;7.47;;;2.80;;
69847;SDS011;57143;55.940;37.496;2023-07-31T13:25:33;7.77;;;2.27;;
69847;SDS011;57143;55.940;37.496;2023-07-31T13:28:01;5.93;;;2.20;;
69847;SDS011;57143;55.940;37.496;2023-07-31T13:30:28;6.55;;;2.50;;
69847;SDS011;57143;55.940;37.496;2023-07-31T13:32:55;9.23;;;2.78;;
69847;SDS011;57143;55.940;37.496;2023-07-31T13:35:22;5.32;;;2.30;;
69847;SDS011;57143;55.940;37.496;2023-07-31T13:37:51;9.57;;;2.73;;
69847;SDS011;57143;55.940;37.496;2023-07-31T13:40:18;7.10;;;2.47;;
69847;SDS011;57143;55.940;37.496;2023-07-31T13:42:45;7.57;;;2.47;;
69847;SDS011;57143;55.940;37.496;2023-07-31T13:45:14;6.18;;;2.30;;
69847;SDS011;57143;55.940;37.496;2023-07-31T13:47:41;6.00;;;2.63;;
69847;SDS011;57143;55.940;37.496;2023-07-31T13:50:08;13.20;;;2.90;;
69847;SDS011;57143;55.940;37.496;2023-07-31T13:52:36;8.85;;;2.72;;
69847;SDS011;57143;55.940;37.496;2023-07-31T13:55:05;7.38;;;2.85;;
69847;SDS011;57143;55.940;37.496;2023-07-31T13:57:33;10.93;;;2.70;;
69847;SDS011;57143;55.940;37.496;2023-07-31T14:00:00;5.88;;;2.00;;
69847;SDS011;57143;55.940;37.496;2023-07-31T14:02:31;9.40;;;2.70;;
69847;SDS011;57143;55.940;37.496;2023-07-31T14:04:58;7.13;;;2.70;;
69847;SDS011;57143;55.940;37.496;2023-07-31T14:07:25;5.88;;;2.90;;
69847;SDS011;57143;55.940;37.496;2023-07-31T14:09:52;6.35;;;2.50;;
69847;SDS011;57143;55.940;37.496;2023-07-31T14:12:21;5.97;;;2.55;;
69847;SDS011;57143;55.940;37.496;2023-07-31T14:14:48;5.90;;;2.73;;
69847;SDS011;57143;55.940;37.496;2023-07-31T14:17:16;6.60;;;2.50;;
69847;SDS011;57143;55.940;37.496;2023-07-31T14:19:43;6.22;;;2.65;;
69847;SDS011;57143;55.940;37.496;2023-07-31T14:22:10;8.77;;;2.60;;
69847;SDS011;57143;55.940;37.496;2023-07-31T14:24:37;6.65;;;2.50;;
69847;SDS011;57143;55.940;37.496;2023-07-31T14:27:05;7.47;;;2.50;;
69847;SDS011;57143;55.940;37.496;2023-07-31T14:29:33;6.38;;;2.60;;
69847;SDS011;57143;55.940;37.496;2023-07-31T14:32:00;6.15;;;2.40;;
69847;SDS011;57143;55.940;37.496;2023-07-31T14:34:29;5.95;;;2.63;;
69847;SDS011;57143;55.940;37.496;2023-07-31T14:36:56;7.78;;;2.83;;
69847;SDS011;57143;55.940;37.496;2023-07-31T14:39:23;5.80;;;2.63;;